LEVX Airport Information

Runway Information
Runway 02 Length 7874 ft width 148 ft
Elevation 855 ft Threshold 0 ft Heading 11
Runway 20 Length 7874 ft Width 148 ft
Elevation 829 ft Threshold 0 ft Heading 191
Airport Frequencies
Type APP Name SANTIAGO A Frequency 120.2 MHZ
Type GND Name GND Frequency 121.7 MHZ
Type TWR Name TWR Frequency 118.45 MHZ
Airport Navaids
Type VOR-DME Name Vigo Frequency 113600 KHZ
Type NDB Name Vigo Frequency 345 KHZ
Type NDB Name Vigo Frequency 433 KHZ
Airport Weather Information & NOTAM
ADDS - METARS form results

(1034 UTC 18 January 2022)
Data provider http://aviationweather.gov/metar/data/
 
METAR text: LEVX 181030Z 22004KT CAVOK 09/06 Q1031 NOSIG
Conditions at: LEVX (VIGO/PEINADOR , ES) observed 1030 UTC 18 January 2022
Temperature: 9.0°C (48°F)
Dewpoint: 6.0°C (43°F) [RH = 81%]
Pressure (altimeter): 30.44 inches Hg (1031.0 mb)
Winds: from the SW (220 degrees) at 5 MPH (4 knots; 2.1 m/s)
Visibility: 6 or more miles (10+ km)
Ceiling: ceiling and visibility are OK
Clouds: unknown
Weather: no significant weather observed at this time

METAR text: LEVX 181000Z 23004KT CAVOK 08/05 Q1031 NOSIG
Conditions at: LEVX (VIGO/PEINADOR , ES) observed 1000 UTC 18 January 2022
Temperature: 8.0°C (46°F)
Dewpoint: 5.0°C (41°F) [RH = 81%]
Pressure (altimeter): 30.44 inches Hg (1031.0 mb)
Winds: from the SW (230 degrees) at 5 MPH (4 knots; 2.1 m/s)
Visibility: 6 or more miles (10+ km)
Ceiling: ceiling and visibility are OK
Clouds: unknown
Weather: no significant weather observed at this time

Forecast for: LEVX (VIGO/PEINADOR , ES)
Text: TAF LEVX 180500Z 1806/1906 20005KT CAVOK TX14/1814Z TN05/1906Z
Forecast period: 0600 UTC 18 January 2022 to 0600 UTC 19 January 2022
Forecast type: FROM: standard forecast or significant change
Winds: from the SSW (200 degrees) at 6 MPH (5 knots; 2.6 m/s)
Visibility: 6 or more miles (10+ km)
Ceiling: unknown
Clouds: missing
Weather: no significant weather forecast for this period
Text: TEMPO 1812/1818 30010KT
Forecast period: 1200 to 1800 UTC 18 January 2022
Forecast type: TEMPORARY: The following changes expected for less than half the time period
Winds: from the WNW (300 degrees) at 12 MPH (10 knots; 5.1 m/s)
Visibility: missing
Ceiling: unknown
Clouds: missing
Weather: no significant weather forecast for this period